createdAt,value
2018-04-15T00:00:40.495Z,35.90
2018-04-15T00:03:08.157Z,35.43
2018-04-15T00:05:35.792Z,37.17
2018-04-15T00:08:03.657Z,36.83
2018-04-15T00:10:31.296Z,29.63
2018-04-15T00:12:59.701Z,35.50
2018-04-15T00:15:27.386Z,35.57
2018-04-15T00:17:55.025Z,33.57
2018-04-15T00:20:22.661Z,34.03
2018-04-15T00:22:51.275Z,29.50
2018-04-15T00:25:19.058Z,29.57
2018-04-15T00:27:46.713Z,29.50
2018-04-15T00:30:14.534Z,30.20
2018-04-15T00:32:42.949Z,29.53
2018-04-15T00:35:10.733Z,27.03
2018-04-15T00:37:38.593Z,30.60
2018-04-15T00:40:06.242Z,30.40
2018-04-15T00:42:33.877Z,35.50
2018-04-15T00:45:01.983Z,35.40
2018-04-15T00:47:29.860Z,37.20
2018-04-15T00:49:57.511Z,33.83
2018-04-15T00:52:25.364Z,31.60
2018-04-15T00:54:53.014Z,28.33
2018-04-15T00:57:20.649Z,32.17
2018-04-15T00:59:49.291Z,32.17
2018-04-15T01:02:17.156Z,31.47
2018-04-15T01:04:44.801Z,33.67
2018-04-15T01:07:12.679Z,32.90
2018-04-15T01:09:40.338Z,25.07
2018-04-15T01:12:07.980Z,28.27
2018-04-15T01:14:36.048Z,28.80
2018-04-15T01:17:04.288Z,30.50
2018-04-15T01:19:31.924Z,31.30
2018-04-15T01:21:59.869Z,30.00
2018-04-15T01:24:27.514Z,25.03
2018-04-15T01:26:55.154Z,30.60
2018-04-15T01:29:23.840Z,29.17
2018-04-15T01:31:52.256Z,28.67
2018-04-15T01:34:19.894Z,29.63
2018-04-15T01:36:47.906Z,27.47
2018-04-15T01:39:15.541Z,28.40
2018-04-15T01:41:43.180Z,27.47
2018-04-15T01:44:11.793Z,29.57
2018-04-15T01:46:39.433Z,30.03
2018-04-15T01:49:07.230Z,28.10
2018-04-15T01:51:35.302Z,28.80
2018-04-15T01:54:02.959Z,32.63
2018-04-15T01:56:30.602Z,29.93
2018-04-15T01:58:58.503Z,29.27
2018-04-15T02:01:26.384Z,31.37
2018-04-15T02:03:55.153Z,33.53
2018-04-15T02:06:23.096Z,31.23
2018-04-15T02:08:50.729Z,30.37
2018-04-15T02:11:19.128Z,32.00
2018-04-15T02:13:47.022Z,31.47
2018-04-15T02:16:14.788Z,31.70
2018-04-15T02:18:42.437Z,33.43
2018-04-15T02:21:10.316Z,33.13
2018-04-15T02:23:37.965Z,33.77
2018-04-15T02:26:05.605Z,33.67
2018-04-15T02:28:34.055Z,34.57
2018-04-15T02:31:01.888Z,32.03
2018-04-15T02:33:29.541Z,33.00
2018-04-15T02:35:57.244Z,34.60
2018-04-15T02:38:24.891Z,31.90
2018-04-15T02:40:52.546Z,36.00
2018-04-15T02:43:21.209Z,30.40
2018-04-15T02:45:48.846Z,31.73
2018-04-15T02:48:16.773Z,32.47
2018-04-15T02:50:44.471Z,32.47
2018-04-15T02:53:13.094Z,32.93
2018-04-15T02:55:41.354Z,33.47
2018-04-15T02:58:09.217Z,31.23
2018-04-15T03:00:37.000Z,28.77
2018-04-15T03:03:04.874Z,30.27
2018-04-15T03:05:32.581Z,28.83
2018-04-15T03:08:00.987Z,28.77
2018-04-15T03:10:28.781Z,27.83
2018-04-15T03:12:56.490Z,25.50
2018-04-15T03:15:24.896Z,25.47
2018-04-15T03:17:52.533Z,24.17
2018-04-15T03:20:20.989Z,24.83
2018-04-15T03:22:48.721Z,25.73
2018-04-15T03:25:16.370Z,23.13
2018-04-15T03:27:44.229Z,23.30
2018-04-15T03:30:11.870Z,23.73
2018-04-15T03:32:40.276Z,22.90
2018-04-15T03:35:08.184Z,25.13
2018-04-15T03:37:35.828Z,21.20
2018-04-15T03:40:03.684Z,24.83
2018-04-15T03:42:31.755Z,24.83
2018-04-15T03:44:59.413Z,25.67
2018-04-15T03:47:27.057Z,26.07
2018-04-15T03:49:54.881Z,25.83
2018-04-15T03:52:22.524Z,26.00
2018-04-15T03:54:50.169Z,24.93
2018-04-15T03:57:18.325Z,27.23
2018-04-15T03:59:46.104Z,29.67
2018-04-15T04:02:13.781Z,29.87
2018-04-15T04:04:41.473Z,29.87
2018-04-15T04:07:10.011Z,30.23
2018-04-15T04:09:37.664Z,31.97
2018-04-15T04:12:05.539Z,31.23
2018-04-15T04:14:33.184Z,30.07
2018-04-15T04:17:01.292Z,29.73
2018-04-15T04:19:40.922Z,30.93
2018-04-15T04:22:20.592Z,29.40
2018-04-15T04:25:15.157Z,30.20
2018-04-15T04:27:43.022Z,30.83
2018-04-15T04:30:10.883Z,29.47
2018-04-15T04:32:38.827Z,29.17
2018-04-15T04:35:06.469Z,28.17
2018-04-15T04:37:34.887Z,28.53
2018-04-15T04:40:02.753Z,31.77
2018-04-15T04:42:30.529Z,30.73
2018-04-15T04:44:58.195Z,29.47
2018-04-15T04:47:25.924Z,31.10
2018-04-15T04:49:53.572Z,34.70
2018-04-15T04:52:21.983Z,33.33
2018-04-15T04:54:49.845Z,30.73
2018-04-15T04:57:17.482Z,29.70
2018-04-15T04:59:45.121Z,28.67
2018-04-15T05:02:13.758Z,30.43
2018-04-15T05:04:41.404Z,28.37
2018-04-15T05:07:09.042Z,28.23
2018-04-15T05:09:37.492Z,30.83
2018-04-15T05:12:05.133Z,30.73
2018-04-15T05:14:33.000Z,31.83
2018-04-15T05:17:00.704Z,28.80
2018-04-15T05:19:29.113Z,27.80
2018-04-15T05:21:56.748Z,27.50
2018-04-15T05:24:25.291Z,26.70
2018-04-15T05:26:53.152Z,25.40
2018-04-15T05:29:20.800Z,25.07
2018-04-15T05:31:48.674Z,26.30
2018-04-15T05:34:16.340Z,25.90
2018-04-15T05:36:44.003Z,24.53
2018-04-15T05:39:12.076Z,25.67
2018-04-15T05:41:39.737Z,24.17
2018-04-15T05:44:07.387Z,23.63
2018-04-15T05:46:35.675Z,21.23
2018-04-15T05:49:03.328Z,21.00
2018-04-15T05:51:30.979Z,20.40
2018-04-15T05:53:58.676Z,24.67
2018-04-15T05:56:26.465Z,22.33
2018-04-15T05:58:54.881Z,20.63
2018-04-15T06:01:22.960Z,21.70
2018-04-15T06:03:50.608Z,21.57
2018-04-15T06:06:18.502Z,20.83
2018-04-15T06:08:46.349Z,22.63
2018-04-15T06:11:14.000Z,21.63
2018-04-15T06:13:41.650Z,23.60
2018-04-15T06:16:10.475Z,21.27
2018-04-15T06:18:38.125Z,19.70
2018-04-15T06:21:05.915Z,19.00
2018-04-15T06:23:33.757Z,20.83
2018-04-15T06:26:02.201Z,20.63
2018-04-15T06:28:30.616Z,21.07
2018-04-15T06:30:58.485Z,22.03
2018-04-15T06:33:26.266Z,20.37
2018-04-15T06:35:54.571Z,20.53
2018-04-15T06:38:22.325Z,21.50
2018-04-15T06:40:50.174Z,22.40
2018-04-15T06:43:18.041Z,24.40
2018-04-15T06:45:46.316Z,22.20
2018-04-15T06:48:13.977Z,22.23
2018-04-15T06:50:41.786Z,21.97
2018-04-15T06:53:10.616Z,23.83
2018-04-15T06:55:38.493Z,23.27
2018-04-15T06:58:06.155Z,22.63
2018-04-15T07:00:34.218Z,27.90
2018-04-15T07:03:01.995Z,23.30
2018-04-15T07:12:15.471Z,21.23
2018-04-15T07:14:43.250Z,22.87
2018-04-15T07:17:10.914Z,22.60
2018-04-15T07:19:39.011Z,23.63
2018-04-15T07:22:07.490Z,28.80
2018-04-15T07:24:35.976Z,24.73
2018-04-15T07:27:04.520Z,24.67
2018-04-15T07:29:32.979Z,26.53
2018-04-15T07:32:00.625Z,25.17
2018-04-15T07:34:28.467Z,26.77
2018-04-15T07:36:56.890Z,25.97
2018-04-15T07:39:24.873Z,25.67
2018-04-15T07:41:56.167Z,23.60
2018-04-15T07:44:23.821Z,33.40
2018-04-15T07:46:52.238Z,25.80
2018-04-15T07:49:19.949Z,23.57
2018-04-15T07:51:53.158Z,24.97
2018-04-15T07:54:21.778Z,24.10
2018-04-15T07:56:51.266Z,23.37
2018-04-15T07:59:18.928Z,21.67
2018-04-15T08:01:46.823Z,20.40
2018-04-15T08:04:14.475Z,20.27
2018-04-15T08:06:42.136Z,21.07
2018-04-15T08:09:10.009Z,21.70
2018-04-15T08:11:37.718Z,23.63
2018-04-15T08:14:05.388Z,21.97
2018-04-15T08:16:34.018Z,22.80
2018-04-15T08:19:01.734Z,21.07
2018-04-15T08:21:30.158Z,22.30
2018-04-15T08:23:59.094Z,20.63
2018-04-15T08:26:26.757Z,19.20
2018-04-15T08:28:55.230Z,20.07
2018-04-15T08:31:22.941Z,19.50
2018-04-15T08:33:50.598Z,22.23
2018-04-15T08:36:18.251Z,22.77
2018-04-15T08:38:46.007Z,20.50
2018-04-15T08:41:13.663Z,23.33
2018-04-15T08:43:41.390Z,21.60
2018-04-15T08:46:10.096Z,22.77
2018-04-15T08:48:37.770Z,22.73
2018-04-15T08:51:05.413Z,21.90
2018-04-15T08:53:34.045Z,24.13
2018-04-15T08:56:01.714Z,22.83
2018-04-15T08:58:29.625Z,24.00
2018-04-15T09:00:58.511Z,23.10
2018-04-15T09:03:26.991Z,23.20
2018-04-15T09:05:55.474Z,23.87
2018-04-15T09:08:24.008Z,23.87
2018-04-15T09:10:52.428Z,23.80
2018-04-15T09:13:20.853Z,24.30
2018-04-15T09:15:48.862Z,25.00
2018-04-15T09:18:17.343Z,23.73
2018-04-15T09:20:45.034Z,22.47
2018-04-15T09:23:12.862Z,23.10
2018-04-15T09:25:41.350Z,21.50
2018-04-15T09:28:09.831Z,21.97
2018-04-15T09:30:44.098Z,22.10
2018-04-15T09:33:11.755Z,21.17
2018-04-15T09:35:41.082Z,20.53
2018-04-15T09:38:08.890Z,20.20
2018-04-15T09:40:37.309Z,21.00
2018-04-15T09:43:04.970Z,21.27
2018-04-15T09:45:32.761Z,22.83
2018-04-15T09:48:00.414Z,21.23
2018-04-15T09:50:28.123Z,19.20
2018-04-15T09:52:55.942Z,19.00
2018-04-15T09:55:23.646Z,19.27
2018-04-15T09:57:51.309Z,19.27
2018-04-15T10:00:19.037Z,18.60
2018-04-15T10:02:46.686Z,17.77
2018-04-15T10:05:14.386Z,19.43
2018-04-15T10:07:42.942Z,19.37
2018-04-15T10:10:10.591Z,19.07
2018-04-15T10:12:38.291Z,19.60
2018-04-15T10:15:06.753Z,19.70
2018-04-15T10:17:35.162Z,17.60
2018-04-15T10:20:02.814Z,16.33
2018-04-15T10:22:30.574Z,19.07
2018-04-15T10:24:58.281Z,17.70
2018-04-15T10:27:25.962Z,17.17
2018-04-15T10:29:53.758Z,17.13
2018-04-15T10:32:21.421Z,18.47
2018-04-15T10:34:49.074Z,18.03
2018-04-15T10:37:17.689Z,17.20
2018-04-15T10:39:45.410Z,21.20
2018-04-15T10:42:13.839Z,16.17
2018-04-15T10:44:41.707Z,16.90
2018-04-15T10:47:09.359Z,16.07
2018-04-15T10:49:37.010Z,16.77
2018-04-15T10:52:04.783Z,15.63
2018-04-15T10:54:32.530Z,17.33
2018-04-15T10:57:01.229Z,18.50
2018-04-15T10:59:28.930Z,16.67
2018-04-15T11:01:56.622Z,16.97
2018-04-15T11:04:24.281Z,16.80
2018-04-15T11:06:52.027Z,17.30
2018-04-15T11:09:21.067Z,17.87
2018-04-15T11:11:48.713Z,18.77
2018-04-15T11:14:16.541Z,18.57
2018-04-15T11:16:44.949Z,19.17
2018-04-15T11:19:12.599Z,20.00
2018-04-15T11:21:40.318Z,20.90
2018-04-15T11:24:08.023Z,20.57
2018-04-15T11:26:36.523Z,20.20
2018-04-15T11:29:05.061Z,19.30
2018-04-15T11:31:32.791Z,21.13
2018-04-15T11:34:00.495Z,20.07
2018-04-15T11:36:29.179Z,20.30
2018-04-15T11:38:57.678Z,20.67
2018-04-15T11:41:26.350Z,21.70
2018-04-15T11:43:54.820Z,22.67
2018-04-15T11:46:22.474Z,21.57
2018-04-15T11:48:50.174Z,21.77
2018-04-15T11:51:18.167Z,21.97
2018-04-15T11:53:45.833Z,22.90
2018-04-15T11:56:13.507Z,22.47
2018-04-15T11:58:41.217Z,21.87
2018-04-15T12:01:09.642Z,22.63
2018-04-15T12:03:37.311Z,22.87
2018-04-15T12:06:05.037Z,23.10
2018-04-15T12:08:32.686Z,22.70
2018-04-15T12:11:00.370Z,22.90
2018-04-15T12:13:28.506Z,21.33
2018-04-15T12:15:56.936Z,22.43
2018-04-15T12:18:24.659Z,21.10
2018-04-15T12:20:52.378Z,20.73
2018-04-15T12:23:20.884Z,19.27
2018-04-15T12:25:49.693Z,21.37
2018-04-15T12:28:18.558Z,20.13
2018-04-15T12:30:46.209Z,19.50
2018-04-15T12:33:13.857Z,20.67
2018-04-15T12:35:41.895Z,18.47
2018-04-15T12:38:09.534Z,18.40
2018-04-15T12:40:37.945Z,18.70
2018-04-15T12:43:05.701Z,19.53
2018-04-15T12:45:33.356Z,19.67
2018-04-15T12:48:01.064Z,18.03
2018-04-15T12:50:29.062Z,20.70
2018-04-15T12:52:57.546Z,17.63
2018-04-15T12:55:25.961Z,16.07
2018-04-15T12:57:53.844Z,12.10
2018-04-15T13:00:21.492Z,14.53
2018-04-15T13:02:49.373Z,15.93
2018-04-15T13:05:17.229Z,15.57
2018-04-15T13:07:44.870Z,15.80
2018-04-15T13:10:12.576Z,13.77
2018-04-15T13:12:40.616Z,14.30
2018-04-15T13:15:08.260Z,15.43
2018-04-15T13:17:36.700Z,13.63
2018-04-15T13:20:05.345Z,12.97
2018-04-15T13:22:33.131Z,13.70
2018-04-15T13:25:00.783Z,15.27
2018-04-15T13:27:28.640Z,15.47
2018-04-15T13:29:56.429Z,16.00
2018-04-15T13:32:24.089Z,14.70
2018-04-15T13:34:51.894Z,15.90
2018-04-15T13:37:20.527Z,14.93
2018-04-15T13:39:48.192Z,13.90
2018-04-15T13:42:16.585Z,14.77
2018-04-15T13:44:44.239Z,17.73
2018-04-15T13:47:11.891Z,17.43
2018-04-15T13:49:39.863Z,15.47
2018-04-15T13:52:08.757Z,14.50
2018-04-15T13:54:36.621Z,15.17
2018-04-15T13:57:04.572Z,15.67
2018-04-15T13:59:32.217Z,13.67
2018-04-15T14:01:59.862Z,15.30
2018-04-15T14:04:28.324Z,15.37
2018-04-15T14:06:58.513Z,15.57
2018-04-15T14:09:26.759Z,15.53
2018-04-15T14:11:54.868Z,14.80
2018-04-15T14:14:23.331Z,15.57
2018-04-15T14:16:50.971Z,15.37
2018-04-15T14:19:18.870Z,15.00
2018-04-15T14:21:46.549Z,14.17
2018-04-15T14:24:14.193Z,14.10
2018-04-15T14:26:41.992Z,13.93
2018-04-15T14:29:09.633Z,13.73
2018-04-15T14:31:37.286Z,16.30
2018-04-15T14:34:05.146Z,17.87
2018-04-15T14:36:32.817Z,14.33
2018-04-15T14:39:00.469Z,15.73
2018-04-15T14:41:28.439Z,15.23
2018-04-15T14:43:56.093Z,15.80
2018-04-15T14:46:23.740Z,15.37
2018-04-15T14:48:51.742Z,15.50
2018-04-15T14:51:19.382Z,15.13
2018-04-15T14:53:47.051Z,16.00
2018-04-15T14:56:14.911Z,15.03
2018-04-15T14:58:42.688Z,16.77
2018-04-15T15:01:10.344Z,14.57
2018-04-15T15:03:38.414Z,15.10
2018-04-15T15:06:06.074Z,14.40
2018-04-15T15:08:33.947Z,14.60
2018-04-15T15:11:01.905Z,14.50
2018-04-15T15:13:29.600Z,12.90
2018-04-15T15:15:57.443Z,14.53
2018-04-15T15:18:25.129Z,13.73
2018-04-15T15:20:53.685Z,13.60
2018-04-15T15:23:21.333Z,15.47
2018-04-15T15:25:49.033Z,25.63
2018-04-15T15:28:17.617Z,25.27
2018-04-15T15:30:46.064Z,24.40
2018-04-15T15:33:14.577Z,25.30
2018-04-15T15:35:42.223Z,23.23
2018-04-15T15:38:09.985Z,24.50
2018-04-15T15:40:38.041Z,23.87
2018-04-15T15:43:05.920Z,24.37
2018-04-15T15:45:33.573Z,27.13
2018-04-15T15:48:01.261Z,26.03
2018-04-15T15:50:29.114Z,24.67
2018-04-15T15:52:56.784Z,25.97
2018-04-15T15:55:24.625Z,27.53
2018-04-15T15:57:52.347Z,27.90
2018-04-15T16:00:20.798Z,30.20
2018-04-15T16:02:48.648Z,32.13
2018-04-15T16:05:16.411Z,26.80
2018-04-15T16:07:44.273Z,28.97
2018-04-15T16:10:12.029Z,35.90
2018-04-15T16:12:39.657Z,35.90
2018-04-15T16:15:08.289Z,31.70
2018-04-15T16:17:35.997Z,33.63
2018-04-15T16:20:04.630Z,36.13
2018-04-15T16:22:32.284Z,50.03
2018-04-15T16:24:59.973Z,38.00
2018-04-15T16:27:27.616Z,40.23
2018-04-15T16:29:55.257Z,42.27
2018-04-15T16:32:23.548Z,41.93
2018-04-15T16:34:51.266Z,41.07
2018-04-15T16:37:19.901Z,42.93
2018-04-15T16:39:48.568Z,40.43
2018-04-15T16:42:16.209Z,40.53
2018-04-15T16:44:44.616Z,39.07
2018-04-15T16:47:12.478Z,38.63
2018-04-15T16:49:40.157Z,38.67
2018-04-15T16:52:07.926Z,43.53
2018-04-15T16:54:35.785Z,50.80
2018-04-15T16:57:03.659Z,42.50
2018-04-15T16:59:31.312Z,47.60
2018-04-15T17:01:59.010Z,41.63
2018-04-15T17:04:27.225Z,38.80
2018-04-15T17:06:54.864Z,40.10
2018-04-15T17:09:23.707Z,38.73
2018-04-15T17:11:51.571Z,37.77
2018-04-15T17:14:19.434Z,37.53
2018-04-15T17:16:47.289Z,36.47
2018-04-15T17:19:15.003Z,36.80
2018-04-15T17:21:42.783Z,37.40
2018-04-15T17:24:10.493Z,39.87
2018-04-15T17:26:38.905Z,38.67
2018-04-15T17:29:06.554Z,38.00
2018-04-15T17:31:35.281Z,38.00
2018-04-15T17:34:03.145Z,36.83
2018-04-15T17:36:31.029Z,39.67
2018-04-15T17:38:59.877Z,44.70
2018-04-15T17:41:27.662Z,47.73
2018-04-15T17:43:55.314Z,44.93
2018-04-15T17:46:23.006Z,46.90
2018-04-15T17:48:50.653Z,43.47
2018-04-15T17:51:18.313Z,43.63
2018-04-15T17:53:46.013Z,47.60
2018-04-15T17:56:13.839Z,45.23
2018-04-15T17:58:41.493Z,43.73
2018-04-15T18:01:09.216Z,43.47
2018-04-15T18:03:37.636Z,52.40
2018-04-15T18:06:05.511Z,46.80
2018-04-15T18:08:33.459Z,42.37
2018-04-15T18:11:01.117Z,42.10
2018-04-15T18:13:28.768Z,225.30
2018-04-15T18:15:58.411Z,87.27
2018-04-15T18:23:46.540Z,44.10
2018-04-15T18:26:15.470Z,44.43
2018-04-15T18:28:43.413Z,41.87
2018-04-15T18:31:11.206Z,45.20
2018-04-15T18:33:39.043Z,46.33
2018-04-15T18:36:06.681Z,46.30
2018-04-15T18:38:35.093Z,43.20
2018-04-15T18:41:03.085Z,46.30
2018-04-15T18:43:30.743Z,46.77
2018-04-15T18:45:58.614Z,45.20
2018-04-15T18:48:26.321Z,46.83
2018-04-15T18:50:54.761Z,43.57
2018-04-15T18:53:22.401Z,44.97
2018-04-15T18:55:50.286Z,46.20
2018-04-15T18:58:17.996Z,44.93
2018-04-15T19:00:47.044Z,44.43
2018-04-15T19:03:14.802Z,45.20
2018-04-15T19:05:42.446Z,43.90
2018-04-15T19:08:10.089Z,48.47
2018-04-15T19:10:38.911Z,44.17
2018-04-15T19:13:06.788Z,44.17
2018-04-15T19:15:34.448Z,41.93
2018-04-15T19:18:02.141Z,40.87
2018-04-15T19:20:29.790Z,42.60
2018-04-15T19:22:57.639Z,45.33
2018-04-15T19:25:25.477Z,42.70
2018-04-15T19:27:53.125Z,41.50
2018-04-15T19:30:20.768Z,42.97
2018-04-15T19:32:49.384Z,41.87
2018-04-15T19:35:17.033Z,43.93
2018-04-15T19:37:44.672Z,42.37
2018-04-15T19:40:13.502Z,43.47
2018-04-15T19:42:41.283Z,42.90
2018-04-15T19:45:08.956Z,39.40
2018-04-15T19:47:37.057Z,39.90
2018-04-15T19:50:05.491Z,37.77
2018-04-15T19:52:33.132Z,37.13
2018-04-15T19:55:00.985Z,37.63
2018-04-15T19:57:29.585Z,34.17
2018-04-15T19:59:57.274Z,34.13
2018-04-15T20:02:24.973Z,30.37
2018-04-15T20:04:53.517Z,29.57
2018-04-15T20:07:21.381Z,25.90
2018-04-15T20:09:49.339Z,24.03
2018-04-15T20:12:16.989Z,20.37
2018-04-15T20:14:44.697Z,20.00
2018-04-15T20:17:12.400Z,18.33
2018-04-15T20:19:40.245Z,17.43
2018-04-15T20:22:08.692Z,16.53
2018-04-15T20:24:36.532Z,15.73
2018-04-15T20:27:04.357Z,15.60
2018-04-15T20:29:33.002Z,15.10
2018-04-15T20:32:00.949Z,15.30
2018-04-15T20:34:28.634Z,14.73
2018-04-15T20:36:56.294Z,15.17
2018-04-15T20:39:24.351Z,14.33
2018-04-15T20:41:52.009Z,14.43
2018-04-15T20:44:19.648Z,13.10
2018-04-15T20:46:47.333Z,13.97
2018-04-15T20:49:14.972Z,13.60
2018-04-15T20:51:42.774Z,13.60
2018-04-15T20:54:10.474Z,13.43
2018-04-15T20:56:38.962Z,13.53
2018-04-15T20:59:07.499Z,13.40
2018-04-15T21:01:35.553Z,13.43
2018-04-15T21:04:03.201Z,12.83
2018-04-15T21:06:30.858Z,12.37
2018-04-15T21:08:58.565Z,13.43
2018-04-15T21:11:26.204Z,11.27
2018-04-15T21:13:53.845Z,10.80
2018-04-15T21:16:21.534Z,10.40
2018-04-15T21:18:49.177Z,10.80
2018-04-15T21:21:16.817Z,12.10
2018-04-15T21:23:45.282Z,18.87
2018-04-15T21:26:13.002Z,18.63
2018-04-15T21:28:40.644Z,54.10
2018-04-15T21:31:08.947Z,97.97
2018-04-15T21:33:36.810Z,111.87
2018-04-15T21:36:04.476Z,109.70
2018-04-15T21:38:32.321Z,44.00
2018-04-15T21:41:00.104Z,11.33
2018-04-15T21:43:27.767Z,18.30
2018-04-15T21:45:55.631Z,16.43
2018-04-15T21:48:23.396Z,35.23
2018-04-15T21:50:51.045Z,32.27
2018-04-15T21:53:18.905Z,22.10
2018-04-15T21:55:46.589Z,16.90
2018-04-15T21:58:14.391Z,18.10
2018-04-15T22:00:42.945Z,17.50
2018-04-15T22:03:10.605Z,18.07
2018-04-15T22:05:38.460Z,14.97
2018-04-15T22:08:06.431Z,13.67
2018-04-15T22:10:34.293Z,10.27
2018-04-15T22:13:06.049Z,9.00
2018-04-15T22:15:33.923Z,10.03
2018-04-15T22:18:01.564Z,9.47
2018-04-15T22:20:29.343Z,8.97
2018-04-15T22:22:57.050Z,8.47
2018-04-15T22:25:25.478Z,8.10
2018-04-15T22:27:53.161Z,7.83
2018-04-15T22:30:20.915Z,8.10
2018-04-15T22:32:48.549Z,9.40
2018-04-15T22:35:16.344Z,7.97
2018-04-15T22:37:44.393Z,8.43
2018-04-15T22:40:12.029Z,8.33
2018-04-15T22:42:40.434Z,8.03
2018-04-15T22:45:08.113Z,8.70
2018-04-15T22:47:35.780Z,8.57
2018-04-15T22:50:09.462Z,8.53
2018-04-15T22:52:37.244Z,8.73
2018-04-15T22:55:05.107Z,8.73
2018-04-15T22:57:32.820Z,8.90
2018-04-15T23:00:01.225Z,9.00
2018-04-15T23:02:29.013Z,8.33
2018-04-15T23:04:57.082Z,8.47
2018-04-15T23:07:24.958Z,8.80
2018-04-15T23:09:52.617Z,8.40
2018-04-15T23:12:20.585Z,9.07
2018-04-15T23:14:48.450Z,8.93
2018-04-15T23:17:16.093Z,8.47
2018-04-15T23:19:43.977Z,9.40
2018-04-15T23:22:11.633Z,8.87
2018-04-15T23:24:39.265Z,9.63
2018-04-15T23:27:07.720Z,9.33
2018-04-15T23:29:35.357Z,9.10
2018-04-15T23:32:03.009Z,8.83
2018-04-15T23:34:30.689Z,9.17
2018-04-15T23:36:58.535Z,9.63
2018-04-15T23:39:26.202Z,9.83
2018-04-15T23:41:55.765Z,8.70
2018-04-15T23:44:24.177Z,8.20
2018-04-15T23:46:51.953Z,8.30
2018-04-15T23:49:19.654Z,9.67
2018-04-15T23:51:48.061Z,8.87
2018-04-15T23:54:15.693Z,8.50
2018-04-15T23:56:50.073Z,7.50
2018-04-15T23:59:17.724Z,7.33
